Atlantic, North Carolina
Current Conditions -  °F | °C
As of 1:56 AM on Saturday 29 Nov 2014 (Local Time) from KNBT Reporting Station
Clear Clear  
Wind Chill:   Ceiling: Unl
Heat Index:   Visibility: NA
Dew Point: -2°   Wind: 5mph
Humidity: 76%   Direction: 220°SW
Pressure: 30.33"   Gusts: NA
Location:  34.89°N, 76.34°W
Report Text: KNBT 290656Z AUTO 22004KT CLR 02/M02 A3033 RMK AO2 SLP273 T00221017 PNO $
Loading
Personal Weather Stations






























Interactive Weather Map New forecast layout! Learn more

10-Day Weather Forecast

Advertisements
Track Severe Weather on mobile